createdAt,value
2018-06-18T00:00:30.424Z,65.10
2018-06-18T00:02:58.795Z,65.00
2018-06-18T00:05:27.123Z,64.90
2018-06-18T00:07:55.499Z,64.80
2018-06-18T00:10:23.823Z,64.90
2018-06-18T00:12:52.162Z,64.50
2018-06-18T00:15:20.489Z,64.60
2018-06-18T00:17:48.852Z,64.40
2018-06-18T00:20:17.174Z,64.30
2018-06-18T00:22:45.567Z,64.10
2018-06-18T00:25:14.014Z,64.00
2018-06-18T00:27:42.356Z,64.20
2018-06-18T00:30:10.725Z,64.00
2018-06-18T00:32:39.094Z,64.30
2018-06-18T00:35:07.406Z,64.40
2018-06-18T00:37:35.735Z,64.40
2018-06-18T00:40:04.094Z,64.00
2018-06-18T00:42:32.461Z,64.10
2018-06-18T00:45:00.777Z,64.00
2018-06-18T00:47:29.145Z,64.20
2018-06-18T00:49:57.626Z,64.20
2018-06-18T00:52:25.958Z,64.10
2018-06-18T00:54:54.274Z,64.40
2018-06-18T00:57:22.587Z,64.40
2018-06-18T00:59:51.009Z,64.30
2018-06-18T01:02:19.402Z,64.40
2018-06-18T01:04:47.775Z,64.40
2018-06-18T01:07:16.090Z,64.30
2018-06-18T01:09:44.441Z,64.30
2018-06-18T01:12:12.814Z,64.20
2018-06-18T01:14:41.181Z,64.40
2018-06-18T01:17:09.519Z,64.40
2018-06-18T01:19:37.993Z,65.20
2018-06-18T01:22:06.454Z,64.60
2018-06-18T01:24:48.188Z,64.80
2018-06-18T01:27:16.539Z,64.50
2018-06-18T01:29:44.885Z,64.40
2018-06-18T01:32:13.250Z,64.80
2018-06-18T01:34:41.614Z,65.00
2018-06-18T01:37:09.932Z,65.30
2018-06-18T01:39:38.293Z,65.50
2018-06-18T01:42:06.636Z,65.90
2018-06-18T01:44:34.961Z,65.90
2018-06-18T01:47:03.273Z,65.60
2018-06-18T01:49:31.719Z,65.80
2018-06-18T01:52:00.053Z,66.10
2018-06-18T01:54:28.385Z,66.10
2018-06-18T01:56:56.762Z,66.00
2018-06-18T01:59:25.114Z,66.30
2018-06-18T02:01:53.486Z,66.40
2018-06-18T02:04:21.832Z,66.40
2018-06-18T02:06:50.142Z,66.40
2018-06-18T02:09:18.489Z,66.70
2018-06-18T02:11:46.838Z,66.60
2018-06-18T02:14:15.207Z,66.60
2018-06-18T02:16:44.629Z,66.70
2018-06-18T02:19:12.970Z,66.40
2018-06-18T02:21:41.381Z,67.10
2018-06-18T02:24:09.745Z,67.20
2018-06-18T02:26:38.089Z,66.40
2018-06-18T02:29:11.943Z,66.70
2018-06-18T02:31:45.629Z,67.00
2018-06-18T02:34:19.464Z,66.70
2018-06-18T02:36:53.211Z,67.00
2018-06-18T02:39:21.558Z,67.40
2018-06-18T02:41:49.874Z,68.00
2018-06-18T02:44:19.005Z,68.40
2018-06-18T02:46:47.306Z,68.80
2018-06-18T02:49:15.667Z,69.50
2018-06-18T02:51:44.003Z,68.80
2018-06-18T02:54:12.343Z,68.80
2018-06-18T02:56:48.991Z,68.70
2018-06-18T02:59:17.649Z,68.50
2018-06-18T03:01:45.985Z,68.50
2018-06-18T03:04:14.322Z,68.90
2018-06-18T03:06:42.713Z,69.10
2018-06-18T03:09:12.217Z,69.40
2018-06-18T03:11:41.034Z,69.10
2018-06-18T03:14:10.022Z,69.20
2018-06-18T03:16:38.432Z,69.60
2018-06-18T03:19:12.141Z,70.10
2018-06-18T03:21:45.857Z,69.40
2018-06-18T03:24:19.601Z,69.60
2018-06-18T03:26:53.437Z,69.60
2018-06-18T03:29:24.288Z,69.60
2018-06-18T03:31:54.196Z,69.80
2018-06-18T03:34:22.502Z,69.20
2018-06-18T03:36:50.865Z,69.60
2018-06-18T03:39:19.263Z,69.40
2018-06-18T03:41:49.389Z,69.30
2018-06-18T03:44:28.395Z,69.10
2018-06-18T03:46:58.158Z,69.60
2018-06-18T03:49:26.458Z,69.10
2018-06-18T03:51:54.849Z,68.90
2018-06-18T03:54:23.329Z,68.40
2018-06-18T03:56:51.698Z,68.20
2018-06-18T03:59:20.010Z,68.00
2018-06-18T04:01:58.747Z,67.90
2018-06-18T04:04:40.042Z,67.50
2018-06-18T04:07:13.788Z,67.50
2018-06-18T04:12:15.697Z,67.50
2018-06-18T04:14:43.969Z,66.60
2018-06-18T04:17:12.301Z,66.60
2018-06-18T04:19:40.606Z,66.60
2018-06-18T04:22:08.972Z,66.30
2018-06-18T04:24:37.318Z,66.40
2018-06-18T04:27:05.673Z,65.90
2018-06-18T04:29:34.030Z,65.50
2018-06-18T04:32:02.383Z,66.00
2018-06-18T04:34:48.069Z,66.40
2018-06-18T04:37:16.432Z,66.10
2018-06-18T04:39:44.777Z,66.00
2018-06-18T04:42:18.583Z,66.00
2018-06-18T04:44:52.309Z,65.90
2018-06-18T04:47:26.168Z,66.10
2018-06-18T04:49:59.817Z,65.10
2018-06-18T04:52:28.158Z,65.20
2018-06-18T04:54:56.468Z,66.10
2018-06-18T04:57:24.933Z,65.20
2018-06-18T05:00:59.610Z,65.00
2018-06-18T05:03:27.997Z,64.90
2018-06-18T05:05:56.333Z,64.10
2018-06-18T05:08:40.486Z,63.60
2018-06-18T05:11:08.810Z,63.30
2018-06-18T05:13:37.154Z,62.60
2018-06-18T05:16:05.575Z,62.90
2018-06-18T05:18:33.912Z,62.60
2018-06-18T05:21:02.307Z,62.80
2018-06-18T05:23:30.666Z,62.90
2018-06-18T05:26:00.666Z,61.70
2018-06-18T05:28:29.035Z,62.00
2018-06-18T05:30:57.784Z,62.30
2018-06-18T05:33:26.158Z,62.50
2018-06-18T05:35:54.830Z,61.50
2018-06-18T05:38:33.845Z,61.80
2018-06-18T05:41:02.196Z,61.40
2018-06-18T05:43:31.163Z,62.20
2018-06-18T05:45:59.606Z,63.00
2018-06-18T05:48:28.021Z,63.50
2018-06-18T05:50:56.437Z,63.00
2018-06-18T05:53:24.789Z,62.10
2018-06-18T05:55:53.300Z,62.60
2018-06-18T05:58:21.695Z,62.70
2018-06-18T06:00:50.109Z,62.80
2018-06-18T06:03:18.467Z,62.90
2018-06-18T06:05:46.892Z,62.20
2018-06-18T06:08:16.129Z,62.00
2018-06-18T06:10:44.561Z,62.00
2018-06-18T06:13:12.920Z,62.00
2018-06-18T06:15:41.369Z,61.60
2018-06-18T06:18:09.924Z,61.30
2018-06-18T06:21:06.937Z,60.90
2018-06-18T06:23:35.321Z,60.70
2018-06-18T06:26:03.649Z,59.70
2018-06-18T06:28:32.030Z,59.60
2018-06-18T06:31:00.366Z,59.60
2018-06-18T06:33:28.832Z,59.30
2018-06-18T06:35:58.733Z,58.90
2018-06-18T06:38:27.089Z,58.20
2018-06-18T06:40:55.534Z,58.10
2018-06-18T06:43:23.882Z,57.70
2018-06-18T06:45:52.289Z,58.20
2018-06-18T06:48:20.630Z,56.20
2018-06-18T06:50:49.052Z,55.90
2018-06-18T06:53:17.467Z,55.60
2018-06-18T06:55:45.797Z,55.50
2018-06-18T06:58:14.192Z,55.00
2018-06-18T07:00:42.582Z,54.60
2018-06-18T07:03:10.921Z,54.00
2018-06-18T07:05:39.298Z,54.30
2018-06-18T07:08:07.645Z,54.50
2018-06-18T07:10:36.040Z,53.10
2018-06-18T07:13:04.378Z,53.30
2018-06-18T07:15:32.727Z,51.50
2018-06-18T07:18:01.078Z,52.00
2018-06-18T07:20:29.466Z,52.00
2018-06-18T07:22:57.901Z,51.20
2018-06-18T07:25:26.298Z,51.00
2018-06-18T07:27:54.619Z,52.00
2018-06-18T07:30:23.003Z,51.20
2018-06-18T07:32:51.377Z,50.30
2018-06-18T07:35:19.770Z,51.50
2018-06-18T07:37:48.142Z,51.00
2018-06-18T07:40:16.520Z,50.70
2018-06-18T07:42:44.954Z,50.70
2018-06-18T07:45:13.318Z,50.50
2018-06-18T07:47:41.661Z,50.20
2018-06-18T07:50:10.055Z,50.00
2018-06-18T07:52:38.418Z,50.00
2018-06-18T07:55:06.849Z,50.10
2018-06-18T07:57:35.299Z,49.50
2018-06-18T08:00:03.661Z,48.80
2018-06-18T08:02:32.025Z,49.10
2018-06-18T08:05:00.358Z,48.90
2018-06-18T08:07:28.763Z,48.50
2018-06-18T08:09:57.193Z,48.20
2018-06-18T08:12:25.462Z,47.90
2018-06-18T08:14:53.863Z,47.60
2018-06-18T08:17:22.300Z,47.70
2018-06-18T08:19:50.646Z,47.40
2018-06-18T08:22:19.209Z,47.10
2018-06-18T08:24:49.503Z,46.50
2018-06-18T08:27:17.861Z,46.40
2018-06-18T08:29:46.237Z,46.50
2018-06-18T08:32:14.645Z,46.20
2018-06-18T08:34:42.963Z,45.80
2018-06-18T08:37:11.309Z,46.30
2018-06-18T08:39:39.834Z,45.80
2018-06-18T08:42:08.222Z,45.00
2018-06-18T08:44:36.584Z,44.20
2018-06-18T08:47:05.453Z,43.40
2018-06-18T08:49:38.008Z,43.70
2018-06-18T08:52:11.764Z,43.20
2018-06-18T08:54:45.629Z,44.10
2018-06-18T08:57:26.033Z,44.90
2018-06-18T09:01:00.409Z,45.00
2018-06-18T09:03:33.134Z,45.20
2018-06-18T09:06:02.412Z,43.70
2018-06-18T09:08:39.982Z,42.70
2018-06-18T09:11:08.789Z,42.50
2018-06-18T09:13:37.090Z,41.90
2018-06-18T09:16:05.609Z,41.90
2018-06-18T09:18:33.961Z,41.70
2018-06-18T09:23:31.307Z,42.10
2018-06-18T09:26:00.347Z,41.20
2018-06-18T09:30:58.586Z,40.80
2018-06-18T09:33:26.908Z,40.50
2018-06-18T09:35:55.622Z,41.00
2018-06-18T09:38:24.186Z,41.60
2018-06-18T09:40:52.498Z,41.80
2018-06-18T09:43:21.018Z,41.70
2018-06-18T09:45:49.341Z,41.60
2018-06-18T09:48:17.862Z,40.90
2018-06-18T09:50:51.595Z,41.50
2018-06-18T09:53:25.268Z,40.30
2018-06-18T09:55:59.352Z,40.10
2018-06-18T09:58:32.934Z,39.90
2018-06-18T10:03:39.709Z,37.60
2018-06-18T10:06:08.658Z,36.50
2018-06-18T10:08:37.144Z,35.60
2018-06-18T10:11:05.421Z,35.10
2018-06-18T10:13:33.774Z,34.50
2018-06-18T10:16:02.379Z,34.60
2018-06-18T10:18:30.762Z,34.90
2018-06-18T10:20:59.196Z,36.00
2018-06-18T10:23:27.588Z,36.50
2018-06-18T10:25:56.076Z,36.50
2018-06-18T10:28:24.599Z,36.20
2018-06-18T10:30:53.002Z,35.60
2018-06-18T10:33:26.928Z,35.00
2018-06-18T10:36:00.594Z,34.60
2018-06-18T10:38:34.292Z,34.20
2018-06-18T10:41:07.862Z,33.20
2018-06-18T10:43:37.269Z,33.60
2018-06-18T10:46:05.768Z,34.90
2018-06-18T10:48:34.126Z,35.50
2018-06-18T10:51:02.574Z,36.40
2018-06-18T10:53:30.968Z,36.00
2018-06-18T10:55:59.432Z,35.90
2018-06-18T10:58:27.846Z,36.60
2018-06-18T11:01:03.305Z,37.50
2018-06-18T11:03:31.739Z,38.60
2018-06-18T11:06:05.675Z,38.40
2018-06-18T11:08:34.297Z,37.10
2018-06-18T11:11:02.837Z,35.10
2018-06-18T11:13:31.221Z,34.10
2018-06-18T11:15:59.665Z,33.60
2018-06-18T11:18:33.409Z,34.30
2018-06-18T11:21:07.112Z,34.30
2018-06-18T11:23:40.770Z,35.10
2018-06-18T11:26:14.503Z,35.00
2018-06-18T11:28:42.929Z,34.80
2018-06-18T11:36:07.600Z,34.60
2018-06-18T11:38:35.986Z,34.50
2018-06-18T11:41:04.306Z,34.10
2018-06-18T11:43:32.714Z,34.20
2018-06-18T11:46:01.152Z,34.70
2018-06-18T11:48:29.526Z,34.60
2018-06-18T11:53:26.097Z,36.40
2018-06-18T11:55:54.432Z,37.00
2018-06-18T11:58:28.245Z,38.10
2018-06-18T12:01:01.905Z,38.00
2018-06-18T12:03:35.621Z,38.50
2018-06-18T12:06:09.337Z,38.70
2018-06-18T12:08:43.212Z,39.40
2018-06-18T12:11:11.611Z,40.00
2018-06-18T12:13:39.986Z,40.20
2018-06-18T12:16:08.330Z,40.40
2018-06-18T12:18:36.715Z,40.40
2018-06-18T12:21:05.118Z,40.60
2018-06-18T12:23:33.570Z,40.70
2018-06-18T12:26:01.953Z,41.20
2018-06-18T12:28:30.554Z,41.20
2018-06-18T12:30:59.660Z,41.00
2018-06-18T12:33:28.006Z,41.30
2018-06-18T12:35:56.404Z,40.60
2018-06-18T12:38:24.878Z,40.40
2018-06-18T12:40:53.400Z,40.00
2018-06-18T12:43:23.566Z,39.90
2018-06-18T12:45:58.997Z,40.30
2018-06-18T12:48:32.594Z,40.60
2018-06-18T12:51:06.714Z,40.20
2018-06-18T12:53:40.405Z,40.40
2018-06-18T12:56:14.071Z,40.20
2018-06-18T12:58:42.436Z,38.80
2018-06-18T13:01:12.601Z,38.50
2018-06-18T13:03:41.006Z,38.20
2018-06-18T13:06:09.348Z,38.00
2018-06-18T13:08:37.836Z,37.20
2018-06-18T13:11:06.219Z,37.20
2018-06-18T13:13:34.670Z,37.30
2018-06-18T13:16:09.425Z,36.80
2018-06-18T13:18:37.771Z,36.40
2018-06-18T13:21:06.450Z,35.70
2018-06-18T13:23:34.790Z,35.30
2018-06-18T13:26:03.147Z,35.50
2018-06-18T13:28:31.609Z,35.00
2018-06-18T13:31:00.104Z,33.80
2018-06-18T13:33:28.558Z,33.10
2018-06-18T13:35:56.917Z,32.90
2018-06-18T13:38:30.724Z,33.30
2018-06-18T13:41:04.602Z,32.00
2018-06-18T13:43:38.538Z,29.30
2018-06-18T13:46:12.621Z,28.80
2018-06-18T13:48:46.446Z,27.40
2018-06-18T13:51:14.854Z,28.10
2018-06-18T13:53:43.227Z,28.00
2018-06-18T13:56:11.657Z,28.60
2018-06-18T13:58:40.220Z,30.10
2018-06-18T14:01:10.031Z,31.40
2018-06-18T14:03:38.389Z,31.00
2018-06-18T14:06:06.852Z,30.10
2018-06-18T14:08:35.193Z,30.60
2018-06-18T14:11:03.738Z,31.30
2018-06-18T14:13:32.096Z,30.80
2018-06-18T14:16:00.406Z,30.40
2018-06-18T14:18:28.811Z,31.20
2018-06-18T14:20:57.165Z,31.40
2018-06-18T14:23:25.549Z,31.60
2018-06-18T14:25:54.123Z,31.60
2018-06-18T14:28:22.823Z,29.30
2018-06-18T14:30:56.581Z,27.40
2018-06-18T14:33:30.414Z,27.20
2018-06-18T14:36:04.211Z,28.30
2018-06-18T14:38:37.913Z,29.20
2018-06-18T14:41:06.559Z,30.00
2018-06-18T14:43:34.962Z,30.90
2018-06-18T14:46:03.422Z,31.10
2018-06-18T14:48:31.815Z,31.80
2018-06-18T14:51:00.124Z,31.80
2018-06-18T14:53:28.502Z,32.30
2018-06-18T14:56:05.871Z,33.60
2018-06-18T14:58:34.256Z,34.80
2018-06-18T15:01:02.678Z,35.90
2018-06-18T15:03:31.072Z,36.40
2018-06-18T15:05:59.416Z,36.40
2018-06-18T15:08:27.819Z,36.60
2018-06-18T15:10:56.312Z,36.50
2018-06-18T15:13:24.687Z,37.30
2018-06-18T15:15:58.261Z,37.80
2018-06-18T15:18:26.742Z,38.00
2018-06-18T15:20:58.141Z,37.90
2018-06-18T15:23:26.709Z,37.80
2018-06-18T15:25:55.078Z,37.50
2018-06-18T15:28:23.422Z,37.60
2018-06-18T15:30:51.853Z,37.60
2018-06-18T15:33:20.181Z,37.40
2018-06-18T15:35:48.610Z,36.80
2018-06-18T15:38:17.156Z,37.50
2018-06-18T15:40:45.493Z,37.80
2018-06-18T15:43:13.960Z,37.80
2018-06-18T15:45:42.352Z,37.80
2018-06-18T15:48:10.744Z,38.50
2018-06-18T15:50:39.094Z,39.20
2018-06-18T15:53:07.493Z,40.00
2018-06-18T15:55:35.918Z,40.90
2018-06-18T15:58:04.312Z,41.10
2018-06-18T16:00:32.653Z,41.50
2018-06-18T16:03:01.078Z,41.70
2018-06-18T16:07:57.568Z,42.00
2018-06-18T16:10:25.941Z,42.60
2018-06-18T16:12:54.281Z,43.00
2018-06-18T16:15:22.601Z,43.20
2018-06-18T16:17:50.970Z,43.50
2018-06-18T16:20:19.326Z,43.60
2018-06-18T16:22:47.709Z,43.70
2018-06-18T16:27:44.123Z,43.80
2018-06-18T16:30:12.580Z,44.10
2018-06-18T16:32:40.957Z,44.60
2018-06-18T16:35:09.370Z,45.00
2018-06-18T16:37:37.678Z,45.60
2018-06-18T16:40:06.386Z,45.40
2018-06-18T16:42:34.788Z,45.70
2018-06-18T16:45:03.272Z,46.20
2018-06-18T16:47:31.664Z,46.50
2018-06-18T16:50:00.104Z,46.40
2018-06-18T16:54:56.889Z,46.30
2018-06-18T16:57:25.252Z,46.30
2018-06-18T16:59:53.608Z,46.40
2018-06-18T17:02:21.977Z,46.50
2018-06-18T17:04:50.476Z,46.90
2018-06-18T17:07:18.873Z,46.70
2018-06-18T17:09:47.273Z,46.40
2018-06-18T17:12:15.647Z,46.60
2018-06-18T17:14:44.030Z,46.40
2018-06-18T17:17:12.388Z,46.50
2018-06-18T17:19:40.790Z,46.10
2018-06-18T17:22:09.230Z,46.40
2018-06-18T17:24:37.604Z,46.90
2018-06-18T17:27:05.970Z,47.20
2018-06-18T17:29:34.333Z,47.40
2018-06-18T17:32:02.734Z,47.20
2018-06-18T17:34:31.121Z,47.00
2018-06-18T17:36:59.463Z,45.40
2018-06-18T17:39:27.838Z,44.50
2018-06-18T17:41:56.297Z,44.50
2018-06-18T17:44:24.677Z,44.70
2018-06-18T17:46:53.236Z,45.00
2018-06-18T17:49:21.962Z,45.10
2018-06-18T17:51:50.430Z,44.80
2018-06-18T17:54:18.922Z,44.50
2018-06-18T17:56:47.328Z,44.80
2018-06-18T17:59:22.138Z,45.20
2018-06-18T18:01:50.528Z,45.90
2018-06-18T18:04:18.866Z,46.60
2018-06-18T18:06:47.238Z,47.30
2018-06-18T18:09:15.752Z,47.90
2018-06-18T18:11:44.145Z,48.00
2018-06-18T18:14:12.543Z,47.80
2018-06-18T18:16:40.906Z,48.10
2018-06-18T18:19:09.337Z,48.70
2018-06-18T18:21:37.682Z,49.30
2018-06-18T18:24:06.113Z,49.50
2018-06-18T18:26:34.567Z,49.80
2018-06-18T18:29:02.995Z,50.20
2018-06-18T18:31:31.759Z,50.50
2018-06-18T18:34:00.157Z,50.90
2018-06-18T18:36:28.569Z,51.30
2018-06-18T18:38:56.964Z,51.40
2018-06-18T18:41:25.395Z,51.80
2018-06-18T18:43:53.768Z,51.90
2018-06-18T18:46:22.157Z,52.30
2018-06-18T18:48:50.681Z,52.40
2018-06-18T18:51:19.079Z,52.60
2018-06-18T18:53:47.606Z,53.00
2018-06-18T18:56:27.494Z,53.30
2018-06-18T18:59:12.081Z,53.40
2018-06-18T19:01:40.477Z,53.80
2018-06-18T19:04:10.926Z,54.20
2018-06-18T19:06:39.269Z,54.50
2018-06-18T19:09:09.956Z,54.80
2018-06-18T19:11:38.396Z,55.00
2018-06-18T19:14:06.761Z,55.30
2018-06-18T19:16:35.088Z,55.70
2018-06-18T19:19:03.650Z,55.90
2018-06-18T19:21:31.994Z,55.90
2018-06-18T19:24:00.345Z,56.10
2018-06-18T19:26:28.804Z,56.10
2018-06-18T19:28:57.198Z,56.30
2018-06-18T19:31:26.128Z,56.50
2018-06-18T19:33:59.668Z,56.70
2018-06-18T19:36:28.147Z,57.30
2018-06-18T19:38:56.496Z,57.50
2018-06-18T19:41:24.899Z,57.60
2018-06-18T19:43:53.581Z,57.70
2018-06-18T19:46:28.054Z,58.00
2018-06-18T19:49:03.816Z,58.30
2018-06-18T19:51:32.181Z,58.40
2018-06-18T19:54:00.969Z,58.80
2018-06-18T19:56:29.348Z,59.10
2018-06-18T19:58:57.666Z,59.20
2018-06-18T20:01:26.048Z,59.50
2018-06-18T20:03:54.429Z,59.30
2018-06-18T20:06:22.784Z,59.50
2018-06-18T20:08:51.153Z,59.60
2018-06-18T20:11:19.582Z,60.40
2018-06-18T20:13:47.934Z,60.00
2018-06-18T20:16:16.356Z,60.20
2018-06-18T20:18:44.710Z,60.20
2018-06-18T20:21:13.105Z,60.40
2018-06-18T20:23:41.425Z,60.30
2018-06-18T20:26:12.941Z,60.30
2018-06-18T20:28:41.263Z,60.30
2018-06-18T20:31:09.746Z,60.40
2018-06-18T20:33:41.588Z,60.40
2018-06-18T20:36:12.070Z,60.40
2018-06-18T20:38:40.438Z,60.50
2018-06-18T20:41:09.429Z,60.60
2018-06-18T20:43:44.616Z,60.50
2018-06-18T20:46:12.990Z,60.50
2018-06-18T20:48:41.404Z,60.70
2018-06-18T20:51:09.786Z,60.80
2018-06-18T20:53:38.122Z,60.80
2018-06-18T20:56:06.534Z,60.80
2018-06-18T20:58:35.413Z,61.00
2018-06-18T21:01:05.550Z,61.20
2018-06-18T21:03:33.978Z,61.30
2018-06-18T21:06:02.606Z,61.50
2018-06-18T21:08:30.941Z,61.70
2018-06-18T21:10:59.327Z,61.70
2018-06-18T21:13:28.612Z,62.00
2018-06-18T21:15:56.997Z,62.00
2018-06-18T21:18:25.491Z,62.70
2018-06-18T21:20:54.066Z,62.00
2018-06-18T21:23:24.999Z,62.00
2018-06-18T21:25:53.423Z,62.20
2018-06-18T21:28:21.842Z,62.40
2018-06-18T21:30:50.727Z,62.40
2018-06-18T21:33:19.213Z,62.40
2018-06-18T21:35:47.566Z,62.40
2018-06-18T21:38:15.967Z,62.60
2018-06-18T21:43:12.453Z,63.00
2018-06-18T21:45:40.785Z,63.10
2018-06-18T21:48:09.457Z,63.20
2018-06-18T21:50:37.822Z,63.00
2018-06-18T21:53:07.117Z,63.10
2018-06-18T21:55:36.743Z,63.90
2018-06-18T21:58:06.400Z,63.20
2018-06-18T22:00:39.019Z,63.50
2018-06-18T22:03:07.474Z,63.70
2018-06-18T22:05:35.876Z,63.70
2018-06-18T22:08:06.168Z,64.00
2018-06-18T22:10:34.514Z,64.20
2018-06-18T22:13:02.905Z,64.40
2018-06-18T22:15:31.281Z,64.60
2018-06-18T22:17:59.623Z,64.90
2018-06-18T22:20:27.993Z,65.00
2018-06-18T22:22:56.357Z,64.90
2018-06-18T22:25:24.822Z,65.10
2018-06-18T22:27:53.485Z,66.20
2018-06-18T22:30:22.026Z,65.80
2018-06-18T22:32:50.341Z,65.80
2018-06-18T22:35:18.798Z,65.80
2018-06-18T22:37:47.116Z,65.80
2018-06-18T22:40:15.465Z,66.00
2018-06-18T22:42:43.778Z,66.20
2018-06-18T22:45:13.386Z,66.30
2018-06-18T22:47:41.781Z,66.90
2018-06-18T22:50:11.166Z,67.40
2018-06-18T22:52:39.486Z,66.90
2018-06-18T22:55:07.870Z,67.20
2018-06-18T22:57:36.244Z,67.40
2018-06-18T23:00:04.630Z,67.50
2018-06-18T23:02:33.626Z,68.40
2018-06-18T23:05:01.982Z,67.70
2018-06-18T23:07:30.422Z,67.80
2018-06-18T23:09:58.753Z,68.10
2018-06-18T23:12:39.202Z,68.30
2018-06-18T23:15:08.966Z,68.70
2018-06-18T23:17:37.334Z,68.70
2018-06-18T23:20:05.848Z,69.00
2018-06-18T23:22:34.162Z,69.30
2018-06-18T23:25:02.517Z,69.50
2018-06-18T23:27:30.833Z,69.70
2018-06-18T23:29:59.225Z,70.00
2018-06-18T23:32:27.544Z,70.10
2018-06-18T23:34:55.875Z,70.40
2018-06-18T23:37:24.200Z,70.60
2018-06-18T23:39:52.545Z,70.90
2018-06-18T23:42:20.945Z,71.00
2018-06-18T23:44:49.305Z,71.00
2018-06-18T23:47:17.756Z,71.00
2018-06-18T23:49:46.118Z,71.40
2018-06-18T23:52:14.502Z,71.70
2018-06-18T23:54:42.864Z,72.10
2018-06-18T23:57:11.222Z,72.50
2018-06-18T23:59:39.801Z,72.80
